Time;durP1;ratioP1;P1;durP2;ratioP2;P2;SDS_P1;SDS_P2;PMS_P1;PMS_P2;Temp;Humidity;BMP_temperature;BMP_pressure;BME280_temperature;BME280_humidity;BME280_pressure;Samples;Min_cycle;Max_cycle;Signal;HPM_P1;HPM_P2
2022/04/08 00:01:59;;;;;;;2.87;1.07;;;5.90;99.90;5.10;96720;;;;584519;242;25124;-84
2022/04/08 00:04:27;;;;;;;0.77;0.77;;;6.00;99.90;5.20;96727;;;;593636;242;24064;-85
2022/04/08 00:06:56;;;;;;;0.93;0.93;;;6.10;99.90;5.30;96729;;;;584593;242;24069;-87
2022/04/08 00:09:24;;;;;;;0.73;0.73;;;6.10;99.90;5.40;96724;;;;584583;242;25129;-89
2022/04/08 00:11:55;;;;;;;0.70;0.70;;;6.20;99.90;5.40;96725;;;;593365;239;24101;-86
2022/04/08 00:14:20;;;;;;;1.47;0.93;;;6.30;99.90;5.40;96712;;;;586987;242;24125;-85
2022/04/08 00:16:48;;;;;;;1.47;0.90;;;6.30;99.90;5.50;96718;;;;584267;242;24115;-84
2022/04/08 00:19:16;;;;;;;1.00;1.00;;;6.30;99.90;5.50;96717;;;;584116;242;24115;-86
2022/04/08 00:21:44;;;;;;;0.57;0.57;;;6.30;99.90;5.50;96717;;;;584426;242;24053;-84
2022/04/08 00:24:12;;;;;;;1.00;1.00;;;6.40;99.90;5.60;96719;;;;581481;242;24144;-88
2022/04/08 00:26:42;;;;;;;1.37;1.10;;;6.40;99.90;5.60;96709;;;;584836;242;24052;-82
2022/04/08 00:29:09;;;;;;;1.13;1.13;;;6.40;99.90;5.60;96715;;;;584565;242;24172;-87
2022/04/08 00:31:37;;;;;;;2.87;0.83;;;6.40;99.90;5.60;96708;;;;584251;242;24093;-86
2022/04/08 00:34:04;;;;;;;0.80;0.80;;;6.50;99.90;5.60;96703;;;;584392;242;24116;-87
2022/04/08 00:36:36;;;;;;;0.80;0.80;;;6.40;99.90;5.60;96707;;;;585426;241;24040;-87
2022/04/08 00:39:00;;;;;;;1.13;1.10;;;6.50;99.90;5.60;96714;;;;582275;241;24066;-86
2022/04/08 00:41:28;;;;;;;0.93;0.90;;;6.40;99.90;5.60;96710;;;;585176;241;24066;-87
2022/04/08 00:43:56;;;;;;;1.47;1.00;;;6.50;99.90;5.60;96697;;;;576869;241;35071;-87
2022/04/08 00:46:24;;;;;;;1.87;1.27;;;6.50;99.90;5.60;96705;;;;579891;242;35039;-86
2022/04/08 00:48:53;;;;;;;1.70;1.25;;;6.50;99.90;5.60;96697;;;;579661;242;35089;-88
2022/04/08 00:51:24;;;;;;;1.37;1.10;;;6.50;99.90;5.60;96703;;;;585142;242;24066;-87
2022/04/08 00:53:48;;;;;;;1.10;0.73;;;6.50;99.90;5.60;96697;;;;581835;242;24068;-87
2022/04/08 00:56:16;;;;;;;0.90;0.90;;;6.50;99.90;5.60;96700;;;;593607;242;24056;-87
2022/04/08 00:58:44;;;;;;;1.10;1.00;;;6.50;99.90;5.60;96694;;;;583247;242;24057;-86
2022/04/08 01:01:12;;;;;;;0.97;0.97;;;6.40;99.90;5.60;96685;;;;584551;242;24063;-88
2022/04/08 01:03:40;;;;;;;3.50;1.00;;;6.50;99.90;5.60;96696;;;;584662;242;26319;-87
2022/04/08 01:06:08;;;;;;;0.83;0.73;;;6.40;99.90;5.60;96689;;;;593712;242;24075;-87
2022/04/08 01:08:39;;;;;;;2.80;1.20;;;6.40;99.90;5.60;96684;;;;579456;242;34938;-88
2022/04/08 01:11:04;;;;;;;2.03;1.23;;;6.40;99.90;5.60;96696;;;;579350;242;35026;-88
2022/04/08 01:13:32;;;;;;;1.37;1.27;;;6.40;99.90;5.60;96676;;;;588121;242;35052;-85
2022/04/08 01:16:00;;;;;;;1.50;1.13;;;6.50;99.90;5.60;96669;;;;583902;242;24051;-86
2022/04/08 01:18:28;;;;;;;1.20;1.20;;;6.40;99.90;5.60;96695;;;;581159;242;24106;-88
2022/04/08 01:20:56;;;;;;;0.90;0.80;;;6.40;99.90;5.60;96684;;;;584139;242;24119;-88
2022/04/08 01:23:28;;;;;;;1.00;1.00;;;6.40;99.90;5.60;96693;;;;584337;242;24049;-86
2022/04/08 01:25:52;;;;;;;3.10;1.10;;;6.40;99.90;5.60;96701;;;;581846;242;24067;-86
2022/04/08 01:28:21;;;;;;;0.97;0.90;;;6.40;99.90;5.60;96696;;;;584433;242;24075;-86
2022/04/08 01:30:48;;;;;;;1.57;0.87;;;6.40;99.90;5.60;96691;;;;593427;241;24530;-86
2022/04/08 01:33:17;;;;;;;0.83;0.83;;;6.50;99.90;5.60;96705;;;;584407;242;24091;-89
2022/04/08 01:35:45;;;;;;;0.87;0.87;;;6.40;99.90;5.60;96693;;;;581235;242;24058;-87
2022/04/08 01:38:16;;;;;;;0.97;0.97;;;6.40;99.90;5.60;96696;;;;584205;242;24086;-86
2022/04/08 01:40:41;;;;;;;2.10;1.00;;;6.40;99.90;5.60;96697;;;;581195;242;24067;-88
2022/04/08 01:43:09;;;;;;;0.77;0.77;;;6.50;99.90;5.60;96689;;;;593336;242;24118;-86
2022/04/08 01:45:37;;;;;;;1.33;0.83;;;6.40;99.90;5.60;96695;;;;584393;242;24078;-87
2022/04/08 01:48:06;;;;;;;0.70;0.70;;;6.40;99.90;5.60;96695;;;;585323;241;24081;-87
2022/04/08 01:50:33;;;;;;;3.77;1.17;;;6.50;99.90;5.70;96696;;;;588244;241;24069;-87
2022/04/08 01:53:01;;;;;;;0.83;0.77;;;6.50;99.90;5.60;96683;;;;581983;241;24045;-87
2022/04/08 01:55:30;;;;;;;0.70;0.70;;;6.50;99.90;5.60;96684;;;;585491;241;24088;-87
2022/04/08 01:57:58;;;;;;;0.87;0.87;;;6.40;99.90;5.50;96671;;;;585283;242;24092;-88
2022/04/08 02:00:26;;;;;;;3.23;1.03;;;6.20;99.90;5.30;96675;;;;594396;242;24411;-88
2022/04/08 02:02:54;;;;;;;0.70;0.70;;;6.20;99.90;5.20;96676;;;;585234;242;24059;-87
2022/04/08 02:05:23;;;;;;;1.37;1.00;;;5.90;99.90;5.00;96670;;;;585107;242;24051;-85
2022/04/08 02:07:54;;;;;;;0.60;0.60;;;5.90;99.90;4.90;96675;;;;584949;242;24154;-89
2022/04/08 02:10:19;;;;;;;1.97;1.07;;;5.80;99.90;4.80;96684;;;;584722;242;24098;-87
2022/04/08 02:12:47;;;;;;;0.90;0.90;;;5.70;99.90;4.80;96681;;;;585027;242;24095;-88
2022/04/08 02:15:14;;;;;;;0.87;0.87;;;5.60;99.90;4.70;96686;;;;593919;239;24064;-88
2022/04/08 02:17:42;;;;;;;1.00;1.00;;;5.60;99.90;4.80;96679;;;;584648;242;24063;-87
2022/04/08 02:20:13;;;;;;;2.53;1.10;;;5.60;99.90;4.80;96673;;;;584755;242;24163;-88
2022/04/08 02:22:39;;;;;;;2.47;0.73;;;5.60;99.90;4.80;96683;;;;587456;242;24067;-88
2022/04/08 02:25:10;;;;;;;2.90;1.30;;;5.50;99.90;4.80;96687;;;;584251;242;24068;-86
2022/04/08 02:27:35;;;;;;;2.07;0.93;;;5.60;99.90;4.80;96689;;;;584256;242;24069;-87
2022/04/08 02:30:03;;;;;;;1.10;0.70;;;5.60;99.90;4.80;96690;;;;584263;242;24104;-87
2022/04/08 02:32:31;;;;;;;1.97;1.30;;;5.60;99.90;4.80;96680;;;;587240;242;24115;-87
2022/04/08 02:35:02;;;;;;;0.70;0.70;;;5.60;99.90;4.80;96667;;;;584363;242;24139;-85
2022/04/08 02:37:27;;;;;;;1.10;1.10;;;5.70;99.90;4.80;96679;;;;587251;242;24090;-87
2022/04/08 02:39:55;;;;;;;1.07;1.07;;;5.60;99.90;4.70;96668;;;;584375;242;24096;-88
2022/04/08 02:42:23;;;;;;;1.27;1.00;;;5.60;99.90;4.70;96679;;;;593399;242;24087;-87
2022/04/08 02:44:51;;;;;;;0.70;0.70;;;5.50;99.90;4.60;96679;;;;584394;242;24128;-85
2022/04/08 02:47:19;;;;;;;1.13;1.00;;;5.40;99.90;4.60;96672;;;;584194;242;24112;-86
2022/04/08 02:49:47;;;;;;;4.87;1.40;;;5.40;99.90;4.50;96673;;;;584401;242;24057;-86
2022/04/08 02:52:15;;;;;;;0.90;0.90;;;5.40;99.90;4.50;96672;;;;587179;242;24062;-85
2022/04/08 02:54:47;;;;;;;1.13;1.03;;;5.30;99.90;4.40;96670;;;;584093;242;24104;-89
2022/04/08 02:57:16;;;;;;;1.90;1.00;;;5.20;99.90;4.40;96675;;;;584626;242;24104;-87
2022/04/08 02:59:40;;;;;;;1.20;1.20;;;5.20;99.90;4.40;96668;;;;585385;241;24114;-85
2022/04/08 03:02:08;;;;;;;2.73;0.77;;;5.20;99.90;4.50;96666;;;;585742;241;24075;-86
2022/04/08 03:04:36;;;;;;;1.07;0.93;;;5.30;99.90;4.50;96678;;;;585454;241;24044;-88
2022/04/08 03:07:04;;;;;;;3.23;1.20;;;5.30;99.90;4.50;96672;;;;585310;241;24072;-87
2022/04/08 03:09:32;;;;;;;0.93;0.90;;;5.40;99.90;4.50;96676;;;;588055;242;24047;-88
2022/04/08 03:12:01;;;;;;;3.00;1.20;;;5.30;99.90;4.50;96672;;;;585131;242;24102;-87
2022/04/08 03:14:32;;;;;;;1.10;1.07;;;5.40;99.90;4.50;96671;;;;582060;242;24052;-87
2022/04/08 03:16:57;;;;;;;3.50;1.13;;;5.30;99.90;4.50;96672;;;;584627;242;24079;-89
2022/04/08 03:19:25;;;;;;;3.83;1.47;;;5.30;99.90;4.50;96678;;;;584378;242;24094;-86
2022/04/08 03:21:54;;;;;;;3.00;0.80;;;5.30;99.90;4.50;96678;;;;584567;242;24121;-88
2022/04/08 03:24:21;;;;;;;1.43;1.00;;;5.30;99.90;4.40;96671;;;;584445;242;24056;-88
2022/04/08 03:26:49;;;;;;;2.50;0.77;;;5.30;99.90;4.40;96676;;;;584654;242;24064;-87
2022/04/08 03:29:17;;;;;;;0.90;0.90;;;5.30;99.90;4.40;96684;;;;593651;242;24113;-88
2022/04/08 03:31:45;;;;;;;1.03;1.03;;;5.30;99.90;4.40;96670;;;;584741;242;24122;-89
2022/04/08 03:34:13;;;;;;;1.20;1.20;;;5.30;99.90;4.50;96686;;;;584655;242;24120;-87
2022/04/08 03:36:41;;;;;;;1.00;0.73;;;5.30;99.90;4.50;96678;;;;584265;242;24148;-84
2022/04/08 03:39:10;;;;;;;1.20;1.10;;;5.30;99.90;4.40;96673;;;;584284;242;24071;-86
2022/04/08 03:41:38;;;;;;;1.03;1.03;;;5.30;99.90;4.40;96678;;;;584218;242;24053;-88
2022/04/08 03:44:06;;;;;;;1.20;1.20;;;5.20;99.90;4.40;96676;;;;581145;242;24122;-86
2022/04/08 03:46:34;;;;;;;1.10;1.10;;;5.20;99.90;4.40;96690;;;;584227;242;24115;-87
2022/04/08 03:49:02;;;;;;;0.93;0.93;;;5.30;99.90;4.50;96686;;;;584544;242;24105;-85
2022/04/08 03:51:30;;;;;;;1.20;1.03;;;5.40;99.90;4.60;96678;;;;584361;242;24069;-86
2022/04/08 03:53:58;;;;;;;2.63;1.73;;;5.40;99.90;4.70;96668;;;;584563;242;24112;-84
2022/04/08 03:56:27;;;;;;;1.80;1.20;;;5.60;99.90;4.80;96683;;;;585400;242;24081;-82
2022/04/08 03:58:55;;;;;;;0.90;0.70;;;5.60;99.90;4.80;96692;;;;585832;242;24053;-81
2022/04/08 04:01:23;;;;;;;1.53;1.10;;;5.60;99.90;4.80;96696;;;;585427;242;24068;-81
2022/04/08 04:03:51;;;;;;;2.33;1.03;;;5.60;99.90;4.90;96697;;;;585561;242;24123;-82
2022/04/08 04:06:18;;;;;;;2.67;1.00;;;5.70;99.90;4.90;96686;;;;584894;242;24117;-84
2022/04/08 04:08:50;;;;;;;0.97;0.97;;;5.70;99.90;4.90;96694;;;;584984;242;24076;-80
2022/04/08 04:11:17;;;;;;;1.20;1.10;;;5.70;99.90;4.80;96702;;;;589012;238;24054;-85
2022/04/08 04:13:49;;;;;;;1.20;1.00;;;5.70;99.90;4.90;96701;;;;585832;241;24074;-86
2022/04/08 04:16:13;;;;;;;0.83;0.80;;;5.70;99.90;4.90;96704;;;;585063;241;24103;-85
2022/04/08 04:18:41;;;;;;;1.80;1.10;;;5.70;99.90;4.80;96690;;;;594554;239;24108;-81
2022/04/08 04:21:09;;;;;;;1.57;1.10;;;5.70;99.90;4.80;96679;;;;585377;242;24151;-81
2022/04/08 04:23:37;;;;;;;1.00;0.70;;;5.60;99.90;4.70;96701;;;;582242;242;24064;-82
2022/04/08 04:26:06;;;;;;;0.77;0.77;;;5.50;99.90;4.70;96701;;;;585769;242;24074;-82
2022/04/08 04:28:36;;;;;;;0.77;0.77;;;5.50;99.90;4.80;96694;;;;585235;242;24059;-81
2022/04/08 04:31:04;;;;;;;0.70;0.70;;;5.60;99.90;4.90;96706;;;;584964;242;24105;-81
2022/04/08 04:33:29;;;;;;;0.90;0.90;;;5.60;99.90;4.90;96697;;;;583545;242;24068;-82
2022/04/08 04:35:57;;;;;;;1.70;0.93;;;5.70;99.90;4.90;96697;;;;593908;242;24086;-84
2022/04/08 04:38:25;;;;;;;2.00;0.70;;;5.70;99.90;4.80;96710;;;;584812;242;24141;-82
2022/04/08 04:40:53;;;;;;;0.50;0.50;;;5.60;99.90;4.80;96714;;;;584808;242;24071;-83
2022/04/08 04:43:21;;;;;;;1.03;0.80;;;5.60;99.90;4.80;96734;;;;584687;242;24127;-81
2022/04/08 04:45:49;;;;;;;0.30;0.30;;;5.70;99.90;4.90;96741;;;;584644;242;24117;-82
2022/04/08 04:48:18;;;;;;;0.60;0.60;;;5.60;99.90;4.90;96754;;;;584406;242;25134;-84
2022/04/08 04:50:46;;;;;;;0.90;0.73;;;5.70;99.90;4.90;96767;;;;584049;242;24065;-81
2022/04/08 04:53:14;;;;;;;0.93;0.70;;;5.70;99.90;5.00;96802;;;;576802;242;34938;-82
2022/04/08 04:55:44;;;;;;;0.90;0.90;;;5.80;99.90;5.00;96830;;;;579044;242;45952;-83
2022/04/08 04:58:09;;;;;;;0.73;0.73;;;5.80;99.90;4.90;96829;;;;583867;242;24069;-83
2022/04/08 05:00:37;;;;;;;0.40;0.40;;;5.80;99.90;4.70;96818;;;;584528;242;25110;-83
2022/04/08 05:03:06;;;;;;;1.93;0.80;;;5.60;99.90;4.60;96845;;;;584556;242;25088;-82
2022/04/08 05:05:33;;;;;;;0.97;0.83;;;5.40;99.90;4.40;96826;;;;584421;242;24119;-83
2022/04/08 05:08:01;;;;;;;0.93;0.60;;;5.30;99.90;4.30;96842;;;;584441;242;24055;-84
2022/04/08 05:10:30;;;;;;;1.80;0.43;;;5.20;99.90;4.30;96845;;;;587054;242;24090;-83
2022/04/08 05:13:01;;;;;;;1.07;0.70;;;5.20;99.90;4.30;96857;;;;582227;242;24101;-82
2022/04/08 05:15:25;;;;;;;0.50;0.50;;;5.10;99.90;4.30;96853;;;;581005;242;24111;-83
2022/04/08 05:17:53;;;;;;;0.63;0.63;;;5.20;99.90;4.30;96844;;;;584577;242;24088;-84
2022/04/08 05:20:22;;;;;;;0.30;0.30;;;5.10;99.90;4.30;96862;;;;593191;239;24064;-84
2022/04/08 05:22:50;;;;;;;0.63;0.50;;;5.10;99.90;4.30;96872;;;;585106;241;24162;-85
2022/04/08 05:25:18;;;;;;;1.20;0.70;;;5.10;99.90;4.30;96889;;;;580320;241;34906;-83
2022/04/08 05:27:46;;;;;;;0.80;0.70;;;5.10;99.90;4.30;96877;;;;584970;241;24044;-87
2022/04/08 05:30:16;;;;;;;2.17;0.83;;;5.20;99.90;4.40;96893;;;;585124;241;24090;-88
2022/04/08 05:32:43;;;;;;;0.80;0.80;;;5.50;99.90;4.70;96896;;;;593763;242;24083;-87
2022/04/08 05:35:11;;;;;;;1.70;0.93;;;5.50;99.90;5.10;96899;;;;585155;242;24051;-88
2022/04/08 05:37:43;;;;;;;0.93;0.60;;;5.80;99.90;5.10;96899;;;;584846;242;24130;-87
2022/04/08 05:40:07;;;;;;;0.93;0.80;;;5.90;99.90;5.10;96891;;;;584182;242;24137;-85
2022/04/08 05:42:35;;;;;;;1.07;0.70;;;6.00;99.90;5.00;96921;;;;593571;242;24060;-89
2022/04/08 05:45:06;;;;;;;0.47;0.47;;;5.90;99.90;4.90;96914;;;;584420;242;24071;-83
2022/04/08 05:47:33;;;;;;;0.60;0.60;;;5.80;99.90;4.80;96915;;;;584415;242;25108;-83
2022/04/08 05:49:59;;;;;;;0.50;0.50;;;5.80;99.90;4.70;96935;;;;584241;242;24122;-83
2022/04/08 05:52:27;;;;;;;0.50;0.50;;;5.60;99.90;4.50;96943;;;;584257;242;24066;-84
2022/04/08 05:54:58;;;;;;;1.53;0.90;;;5.50;99.90;4.50;96940;;;;587262;242;24092;-85
2022/04/08 05:57:23;;;;;;;0.50;0.50;;;5.40;99.90;4.90;96972;;;;587175;242;24062;-84
2022/04/08 05:59:54;;;;;;;2.90;0.50;;;5.50;99.90;7.00;96979;;;;584450;242;24100;-84
2022/04/08 06:02:20;;;;;;;2.50;0.87;;;7.20;99.90;8.70;96986;;;;584041;242;24099;-84
2022/04/08 06:04:46;;;;;;;0.70;0.70;;;8.90;99.90;8.90;97011;;;;581251;242;24155;-82
2022/04/08 06:07:14;;;;;;;0.70;0.70;;;9.50;99.90;8.70;97010;;;;584383;242;24136;-84
2022/04/08 06:09:42;;;;;;;2.10;0.63;;;9.60;99.90;8.20;97022;;;;584412;242;24061;-84
2022/04/08 06:12:10;;;;;;;2.97;0.60;;;9.30;99.90;7.80;97010;;;;584500;242;24092;-83
2022/04/08 06:14:39;;;;;;;0.63;0.63;;;8.50;99.90;7.40;97032;;;;584416;242;24102;-85
2022/04/08 06:17:07;;;;;;;1.13;0.83;;;8.50;99.90;6.90;97058;;;;584412;242;24098;-84
2022/04/08 06:19:34;;;;;;;1.60;0.70;;;8.10;99.90;6.60;97041;;;;584431;242;24087;-84
2022/04/08 06:22:02;;;;;;;1.97;0.60;;;7.70;99.90;6.30;97059;;;;593127;239;24087;-83
2022/04/08 06:24:31;;;;;;;3.27;0.80;;;7.10;99.90;6.10;97064;;;;584130;242;24111;-84
2022/04/08 06:26:59;;;;;;;3.07;1.13;;;7.10;99.90;5.90;97068;;;;583999;242;24038;-84
2022/04/08 06:29:27;;;;;;;5.73;1.20;;;6.90;99.90;5.90;97079;;;;584116;242;24061;-87
2022/04/08 06:31:55;;;;;;;1.87;0.90;;;6.80;99.90;5.80;97075;;;;584107;242;24073;-86
2022/04/08 06:34:23;;;;;;;1.53;1.33;;;6.70;99.90;5.60;97090;;;;584977;241;24048;-86
2022/04/08 06:36:51;;;;;;;3.77;1.10;;;6.20;99.90;5.30;97090;;;;585239;241;24067;-85
2022/04/08 06:39:19;;;;;;;3.33;1.00;;;6.20;99.90;5.00;97096;;;;594086;241;24044;-85
2022/04/08 06:41:48;;;;;;;1.13;0.73;;;5.80;99.90;5.00;97089;;;;584985;241;24048;-83
2022/04/08 06:44:19;;;;;;;1.40;0.70;;;5.80;99.90;5.00;97097;;;;584625;242;24074;-87
2022/04/08 06:46:44;;;;;;;0.80;0.70;;;5.80;99.90;5.00;97113;;;;584737;242;24086;-84
2022/04/08 06:49:12;;;;;;;0.73;0.60;;;5.90;99.90;5.00;97113;;;;584695;242;24140;-88
2022/04/08 06:51:39;;;;;;;1.40;0.87;;;5.90;99.90;5.10;97112;;;;584546;242;24054;-83
2022/04/08 06:54:08;;;;;;;1.00;0.70;;;6.00;99.90;5.20;97111;;;;584432;242;24087;-85
2022/04/08 06:56:36;;;;;;;0.37;0.37;;;6.00;99.90;5.30;97122;;;;584269;242;24048;-82
2022/04/08 06:59:06;;;;;;;1.07;0.93;;;6.10;99.90;5.40;97134;;;;584504;242;24092;-83
2022/04/08 07:01:33;;;;;;;3.07;0.73;;;6.20;99.90;6.20;97111;;;;584764;242;24051;-84
2022/04/08 07:04:01;;;;;;;1.13;0.87;;;6.70;99.90;8.80;97153;;;;584750;242;24075;-82
2022/04/08 07:06:30;;;;;;;3.20;0.70;;;8.70;99.90;11.30;97154;;;;584718;242;24201;-85
2022/04/08 07:08:57;;;;;;;3.60;1.23;;;11.10;99.90;12.00;97163;;;;584714;242;24081;-86
2022/04/08 07:11:25;;;;;;;0.83;0.77;;;12.30;99.90;13.40;97171;;;;584567;242;24116;-87
2022/04/08 07:13:53;;;;;;;1.17;0.97;;;13.70;95.10;14.10;97178;;;;584680;242;24088;-84
2022/04/08 07:16:23;;;;;;;3.27;0.80;;;15.30;78.80;14.50;97188;;;;584565;242;24117;-84
2022/04/08 07:18:50;;;;;;;4.10;1.00;;;15.90;76.40;15.30;97180;;;;584518;242;24048;-86
2022/04/08 07:21:18;;;;;;;1.10;1.00;;;15.90;76.30;16.30;97191;;;;593723;242;24117;-86
2022/04/08 07:23:46;;;;;;;1.87;1.00;;;16.80;71.70;17.50;97213;;;;584626;242;24106;-83
2022/04/08 07:26:18;;;;;;;1.00;0.90;;;17.80;68.30;17.00;97218;;;;585286;241;24052;-84
2022/04/08 07:28:43;;;;;;;1.97;0.90;;;17.90;63.30;15.20;97218;;;;584638;242;24083;-84
2022/04/08 07:31:11;;;;;;;1.33;0.80;;;15.40;66.80;13.60;97232;;;;584469;242;24112;-87
2022/04/08 07:33:38;;;;;;;1.77;1.10;;;15.40;66.80;12.70;97261;;;;584457;242;24078;-84
2022/04/08 07:36:06;;;;;;;1.37;0.73;;;14.30;70.70;11.80;97238;;;;584258;242;24061;-88
2022/04/08 07:38:34;;;;;;;3.43;1.13;;;13.30;72.90;11.10;97256;;;;584208;242;24046;-88
2022/04/08 07:41:02;;;;;;;1.43;0.80;;;12.40;76.00;10.50;97253;;;;584316;242;24046;-87
2022/04/08 07:43:30;;;;;;;2.63;1.10;;;11.80;79.40;10.20;97268;;;;584116;242;24041;-90
2022/04/08 07:45:58;;;;;;;2.17;0.90;;;11.30;82.70;9.90;97248;;;;585356;241;24111;-88
2022/04/08 07:48:27;;;;;;;1.07;0.70;;;10.90;85.40;9.50;97284;;;;585362;241;24128;-84
2022/04/08 07:50:54;;;;;;;3.53;1.00;;;10.40;88.20;9.30;97291;;;;585001;241;24059;-87
2022/04/08 07:53:22;;;;;;;2.10;1.30;;;9.90;92.80;9.00;97301;;;;585493;241;24051;-89
2022/04/08 07:55:50;;;;;;;3.90;1.43;;;9.90;92.80;8.80;97315;;;;585130;242;24056;-85
2022/04/08 07:58:18;;;;;;;1.33;0.87;;;9.70;94.70;8.50;97319;;;;585224;242;24055;-87
2022/04/08 08:00:46;;;;;;;1.53;0.60;;;9.40;96.10;8.20;97336;;;;585212;242;24111;-85
2022/04/08 08:03:15;;;;;;;3.03;1.10;;;9.10;97.50;7.90;97337;;;;585114;242;24052;-87
2022/04/08 08:05:42;;;;;;;3.10;1.20;;;8.80;99.90;7.90;97324;;;;584477;242;24059;-83
2022/04/08 08:08:10;;;;;;;7.27;1.40;;;8.70;99.90;8.80;97332;;;;584833;242;24070;-84
2022/04/08 08:10:39;;;;;;;2.90;0.87;;;9.40;99.90;9.00;97335;;;;584875;242;24051;-91
2022/04/08 08:13:06;;;;;;;4.90;1.37;;;9.70;99.90;8.90;97335;;;;581434;242;24114;-87
2022/04/08 08:15:35;;;;;;;2.73;1.53;;;9.70;99.30;8.70;97341;;;;588678;242;35082;-87
2022/04/08 08:18:01;;;;;;;3.77;1.13;;;9.60;99.10;8.70;97345;;;;584134;242;24101;-85
2022/04/08 08:20:33;;;;;;;3.43;1.00;;;9.60;97.80;8.60;97362;;;;583000;242;25143;-87
2022/04/08 08:22:58;;;;;;;3.43;1.40;;;9.30;97.70;8.40;97371;;;;593629;242;24113;-85
2022/04/08 08:25:26;;;;;;;2.73;1.40;;;9.30;97.70;8.10;97364;;;;593639;240;24096;-88
2022/04/08 08:28:02;;;;;;;3.13;1.10;;;9.10;98.90;8.10;97368;;;;584716;242;24097;-87
2022/04/08 08:30:25;;;;;;;4.90;1.07;;;8.90;99.50;10.10;97372;;;;593179;239;24088;-82
2022/04/08 08:32:56;;;;;;;2.50;1.00;;;10.20;99.90;13.60;97385;;;;584778;242;24096;-87
2022/04/08 08:35:21;;;;;;;2.73;0.80;;;13.40;93.40;15.40;97390;;;;584253;242;24053;-87
2022/04/08 08:37:49;;;;;;;1.97;0.97;;;17.30;68.20;17.00;97378;;;;584623;242;24076;-84
2022/04/08 08:40:18;;;;;;;3.77;1.30;;;17.90;59.60;16.80;97398;;;;594920;242;24091;-82
2022/04/08 08:42:46;;;;;;;2.93;1.57;;;17.90;59.60;15.20;97398;;;;585705;242;24107;-86
2022/04/08 08:45:17;;;;;;;4.70;1.40;;;16.80;58.90;14.40;97403;;;;594976;242;24115;-88
2022/04/08 08:47:42;;;;;;;6.43;1.40;;;15.90;61.60;14.50;97411;;;;594300;242;24091;-83
2022/04/08 08:50:14;;;;;;;2.80;0.97;;;15.70;62.10;15.00;97404;;;;582386;242;24154;-86
2022/04/08 08:52:38;;;;;;;3.10;1.13;;;15.70;62.10;16.30;97399;;;;586976;242;24072;-87
2022/04/08 08:55:06;;;;;;;2.90;1.37;;;16.90;58.90;16.80;97435;;;;584348;242;24082;-84
2022/04/08 08:57:34;;;;;;;2.63;1.40;;;17.50;57.10;17.80;97441;;;;585483;241;24162;-84
2022/04/08 09:00:12;;;;;;;1.87;1.20;;;18.40;55.30;17.30;97458;;;;585471;241;24084;-85
2022/04/08 09:02:36;;;;;;;4.80;1.77;;;18.40;54.50;16.80;97447;;;;585369;241;24052;-90
2022/04/08 09:05:18;;;;;;;2.63;1.20;;;18.00;55.20;15.60;97465;;;;586869;241;24131;-87
2022/04/08 09:07:58;;;;;;;4.30;1.85;;;17.10;55.90;14.50;97466;;;;581825;242;35149;-87
2022/04/08 09:10:29;;;;;;;3.57;1.20;;;16.00;58.30;13.80;97476;;;;586148;242;24035;-90
2022/04/08 09:13:00;;;;;;;2.53;1.13;;;15.10;61.30;13.40;97485;;;;586030;242;24153;-89
2022/04/08 09:15:27;;;;;;;4.83;1.50;;;14.60;63.30;12.90;97498;;;;583402;242;24095;-88
2022/04/08 09:17:56;;;;;;;2.87;1.33;;;13.30;68.10;12.20;97496;;;;585502;242;24057;-88
2022/04/08 09:20:21;;;;;;;4.73;1.17;;;13.30;68.10;11.60;97504;;;;594405;242;24084;-88
2022/04/08 09:22:55;;;;;;;5.47;1.50;;;12.70;70.30;11.20;97517;;;;585497;242;24067;-89
2022/04/08 09:25:29;;;;;;;3.53;1.17;;;12.20;72.60;11.20;97521;;;;585605;242;24048;-89
2022/04/08 09:27:59;;;;;;;4.67;1.40;;;12.00;73.50;11.70;97541;;;;582594;242;24122;-88
2022/04/08 09:30:27;;;;;;;4.30;1.50;;;12.30;70.00;12.10;97548;;;;584985;242;24044;-86
2022/04/08 09:32:54;;;;;;;7.30;1.30;;;12.70;67.50;11.90;97547;;;;584418;242;24114;-85
2022/04/08 09:35:23;;;;;;;5.27;1.17;;;12.70;64.10;11.90;97546;;;;584302;242;24077;-85
2022/04/08 09:38:05;;;;;;;5.67;1.10;;;12.70;63.70;12.80;97553;;;;584497;242;24052;-87
2022/04/08 09:40:39;;;;;;;7.07;1.30;;;13.90;60.10;13.20;97557;;;;584766;242;24049;-86
2022/04/08 09:43:09;;;;;;;3.07;1.17;;;13.90;60.00;13.90;97548;;;;584924;241;24150;-86
2022/04/08 09:45:38;;;;;;;6.47;1.43;;;14.50;58.70;14.50;97564;;;;591657;242;26303;-86
2022/04/08 09:48:06;;;;;;;3.13;1.60;;;15.10;58.60;15.40;97568;;;;594085;242;24015;-88
2022/04/08 09:50:33;;;;;;;4.10;1.70;;;16.00;56.80;15.90;97585;;;;585185;242;24087;-90
2022/04/08 09:53:02;;;;;;;4.53;1.50;;;16.70;55.30;16.10;97604;;;;585153;242;24153;-86
2022/04/08 09:55:26;;;;;;;2.83;1.67;;;17.10;54.40;15.50;97604;;;;584734;242;24062;-88
2022/04/08 09:57:57;;;;;;;4.27;2.00;;;16.70;53.20;14.40;97612;;;;594336;242;24066;-89
2022/04/08 10:00:28;;;;;;;4.20;1.27;;;15.90;52.00;13.50;97601;;;;584280;242;24080;-85
2022/04/08 10:02:54;;;;;;;6.80;1.77;;;15.00;52.50;13.40;97620;;;;582442;242;24064;-87
2022/04/08 10:05:24;;;;;;;5.57;1.77;;;14.50;54.30;13.60;97614;;;;584759;242;24045;-86
2022/04/08 10:07:51;;;;;;;2.70;1.20;;;14.60;53.90;13.30;97616;;;;582741;240;24081;-88
2022/04/08 10:10:32;;;;;;;4.17;1.43;;;14.30;53.40;13.10;97612;;;;584491;241;24058;-88
2022/04/08 10:13:30;;;;;;;3.93;1.23;;;14.10;54.40;12.90;97607;;;;586358;241;24047;-89
2022/04/08 10:16:27;;;;;;;3.23;1.13;;;13.90;55.40;12.80;97604;;;;585575;241;24161;-85
2022/04/08 10:18:54;;;;;;;1.87;1.20;;;13.80;55.50;12.50;97619;;;;585120;242;24104;-86
2022/04/08 10:21:18;;;;;;;2.27;1.07;;;13.50;55.90;12.50;97621;;;;583338;242;24097;-86
2022/04/08 10:23:52;;;;;;;2.37;0.80;;;13.30;56.40;12.50;97627;;;;585442;242;24034;-82
2022/04/08 10:26:20;;;;;;;5.37;1.27;;;13.30;56.80;12.60;97629;;;;584784;242;24127;-85
2022/04/08 10:28:51;;;;;;;4.93;1.07;;;13.30;57.20;12.70;97628;;;;584813;239;24070;-82
2022/04/08 10:31:19;;;;;;;5.87;1.10;;;13.40;56.20;12.40;97633;;;;584630;242;24049;-84
2022/04/08 10:33:59;;;;;;;4.47;1.33;;;13.30;55.90;12.20;97633;;;;582275;242;24124;-83
2022/04/08 10:36:35;;;;;;;9.10;1.40;;;13.10;56.70;12.10;97646;;;;583074;242;24053;-83
2022/04/08 10:39:15;;;;;;;1.83;1.10;;;13.00;55.90;11.90;97661;;;;584838;242;24067;-83
2022/04/08 10:41:51;;;;;;;4.77;1.10;;;12.80;56.70;11.90;97660;;;;585312;242;24063;-84
2022/04/08 10:44:42;;;;;;;5.40;1.20;;;12.70;56.90;11.90;97664;;;;585058;242;24052;-80
2022/04/08 10:47:15;;;;;;;4.63;1.20;;;12.70;56.80;11.70;97666;;;;584881;242;24094;-84
2022/04/08 10:49:58;;;;;;;2.73;1.17;;;12.60;57.00;11.60;97676;;;;582753;242;24062;-83
2022/04/08 10:52:26;;;;;;;2.23;1.13;;;12.40;57.80;11.40;97683;;;;584457;242;24080;-82
2022/04/08 10:55:06;;;;;;;6.47;1.50;;;12.30;57.60;11.20;97688;;;;584486;242;24109;-83
2022/04/08 10:57:40;;;;;;;1.73;1.00;;;12.00;57.30;10.70;97691;;;;593641;242;24149;-85
2022/04/08 11:00:11;;;;;;;2.67;1.27;;;11.60;56.70;10.40;97681;;;;584827;242;25141;-84
2022/04/08 11:02:43;;;;;;;2.23;0.53;;;11.30;58.00;10.10;97689;;;;593728;242;24080;-85
2022/04/08 11:05:10;;;;;;;4.43;0.83;;;10.60;58.80;9.70;97681;;;;585245;242;24064;-84
2022/04/08 11:07:45;;;;;;;2.50;0.70;;;10.60;58.80;9.50;97697;;;;585100;242;24067;-87
2022/04/08 11:10:13;;;;;;;4.20;1.07;;;10.40;59.30;9.50;97710;;;;582754;242;24063;-89
2022/04/08 11:12:48;;;;;;;3.53;0.67;;;10.30;60.50;9.70;97711;;;;584889;242;25139;-86
2022/04/08 11:15:15;;;;;;;4.77;1.00;;;10.40;60.70;9.80;97693;;;;584814;242;24067;-86
2022/04/08 11:17:43;;;;;;;2.03;0.87;;;10.50;59.70;10.00;97700;;;;584868;242;24076;-85
2022/04/08 11:20:12;;;;;;;2.77;1.03;;;10.90;61.20;10.20;97717;;;;583397;241;24060;-87
2022/04/08 11:22:42;;;;;;;1.43;0.90;;;10.80;60.20;10.30;97721;;;;586015;241;24142;-86
2022/04/08 11:25:14;;;;;;;2.97;0.87;;;11.00;60.60;10.40;97734;;;;585859;241;24076;-83
2022/04/08 11:27:38;;;;;;;4.23;0.83;;;11.10;60.10;10.00;97725;;;;583343;241;24064;-86
2022/04/08 11:30:09;;;;;;;0.83;0.50;;;10.90;58.90;9.90;97718;;;;585409;241;24065;-86
2022/04/08 11:32:40;;;;;;;2.83;1.03;;;10.70;59.70;9.70;97724;;;;585048;241;25093;-85
2022/04/08 11:35:17;;;;;;;8.80;1.67;;;10.50;61.40;9.80;97714;;;;584660;242;24082;-83
2022/04/08 11:37:43;;;;;;;3.27;1.17;;;10.70;61.60;10.00;97736;;;;583097;242;24071;-84